createdAt,value
2019-04-23T00:00:32.856Z,47.53
2019-04-23T00:01:35.090Z,51.72
2019-04-23T00:02:29.806Z,49.15
2019-04-23T00:03:34.338Z,73.64
2019-04-23T00:04:31.463Z,52.85
2019-04-23T00:06:40.752Z,47.53
2019-04-23T00:07:44.410Z,48.02
2019-04-23T00:08:44.872Z,58.33
2019-04-23T00:09:34.102Z,59.94
2019-04-23T00:10:53.392Z,48.02
2019-04-23T00:11:32.529Z,52.37
2019-04-23T00:12:47.821Z,66.87
2019-04-23T00:13:38.740Z,73.32
2019-04-23T00:14:41.009Z,47.86
2019-04-23T00:15:30.781Z,70.09
2019-04-23T00:16:42.200Z,73.15
2019-04-23T00:17:37.140Z,53.82
2019-04-23T00:18:44.627Z,72.35
2019-04-23T00:19:31.047Z,76.70
2019-04-23T00:20:39.229Z,71.06
2019-04-23T00:21:38.142Z,49.15
2019-04-23T00:22:39.812Z,48.18
2019-04-23T00:23:46.264Z,77.18
2019-04-23T00:24:56.847Z,72.83
2019-04-23T00:25:51.113Z,75.57
2019-04-23T00:26:40.294Z,53.50
2019-04-23T00:27:44.233Z,52.53
2019-04-23T00:28:42.268Z,72.83
2019-04-23T00:29:45.959Z,57.52
2019-04-23T00:30:43.992Z,48.02
2019-04-23T00:31:40.877Z,48.02
2019-04-23T00:33:34.515Z,52.85
2019-04-23T00:34:41.416Z,71.87
2019-04-23T00:35:38.862Z,51.24
2019-04-23T00:36:42.359Z,47.53
2019-04-23T00:37:37.385Z,48.02
2019-04-23T00:38:40.272Z,48.50
2019-04-23T00:39:42.480Z,47.37
2019-04-23T00:40:39.112Z,47.53
2019-04-23T00:42:41.655Z,48.34
2019-04-23T00:43:42.902Z,49.47
2019-04-23T00:44:46.025Z,47.37
2019-04-23T00:46:45.202Z,54.79
2019-04-23T00:48:42.784Z,47.53
2019-04-23T00:49:46.876Z,47.21
2019-04-23T00:50:52.949Z,73.64
2019-04-23T00:51:42.703Z,61.07
2019-04-23T00:52:38.903Z,53.82
2019-04-23T00:53:38.937Z,77.34
2019-04-23T00:54:49.123Z,47.53
2019-04-23T00:55:43.063Z,49.63
2019-04-23T00:56:45.944Z,69.45
2019-04-23T00:57:48.872Z,77.02
2019-04-23T00:58:51.443Z,78.96
2019-04-23T00:59:46.791Z,47.86
2019-04-23T01:00:45.966Z,75.25
2019-04-23T01:01:49.647Z,47.37
2019-04-23T01:02:51.572Z,72.83
2019-04-23T01:03:44.999Z,53.17
2019-04-23T01:04:52.770Z,50.27
2019-04-23T01:05:41.013Z,51.08
2019-04-23T01:06:45.965Z,50.76
2019-04-23T01:07:45.193Z,49.63
2019-04-23T01:08:49.795Z,48.18
2019-04-23T01:09:45.724Z,49.15
2019-04-23T01:10:52.548Z,47.86
2019-04-23T01:11:43.369Z,74.44
2019-04-23T01:12:51.553Z,68.32
2019-04-23T01:14:48.685Z,48.18
2019-04-23T01:15:46.157Z,48.66
2019-04-23T01:16:45.977Z,48.66
2019-04-23T01:17:46.875Z,48.98
2019-04-23T01:18:51.305Z,52.21
2019-04-23T01:20:50.311Z,49.47
2019-04-23T01:21:26.581Z,55.75
2019-04-23T01:22:25.165Z,47.53
2019-04-23T01:23:31.993Z,70.74
2019-04-23T01:24:30.722Z,56.72
2019-04-23T01:25:39.478Z,54.14
2019-04-23T01:27:00.242Z,49.31
2019-04-23T01:28:55.593Z,47.86
2019-04-23T01:29:58.619Z,47.37
2019-04-23T01:30:55.351Z,47.37
2019-04-23T01:31:55.093Z,49.95
2019-04-23T01:32:53.595Z,48.66
2019-04-23T01:34:11.448Z,69.61
2019-04-23T01:34:55.968Z,49.15
2019-04-23T01:37:00.845Z,56.72
2019-04-23T01:37:50.628Z,68.32
2019-04-23T01:39:01.832Z,47.86
2019-04-23T01:39:57.544Z,51.08
2019-04-23T01:40:55.589Z,53.01
2019-04-23T01:42:08.835Z,73.32
2019-04-23T01:43:07.512Z,50.92
2019-04-23T01:43:50.571Z,70.25
2019-04-23T01:45:05.256Z,58.33
2019-04-23T01:45:54.571Z,47.05
2019-04-23T01:46:54.180Z,48.02
2019-04-23T01:47:55.152Z,76.86
2019-04-23T01:48:58.198Z,47.53
2019-04-23T01:50:06.318Z,48.66
2019-04-23T01:52:00.337Z,54.95
2019-04-23T01:53:02.615Z,53.17
2019-04-23T01:53:58.749Z,49.63
2019-04-23T01:55:01.567Z,77.67
2019-04-23T01:56:03.054Z,62.84
2019-04-23T01:57:04.060Z,51.72
2019-04-23T01:58:59.212Z,77.67
2019-04-23T02:00:03.402Z,76.05
2019-04-23T02:01:00.882Z,54.95
2019-04-23T02:01:58.825Z,72.83
2019-04-23T02:03:18.174Z,51.88
2019-04-23T02:04:03.484Z,75.09
2019-04-23T02:05:08.983Z,74.60
2019-04-23T02:06:04.902Z,72.35
2019-04-23T02:07:06.228Z,71.87
2019-04-23T02:08:03.646Z,66.87
2019-04-23T02:09:48.389Z,79.28
2019-04-23T02:10:09.184Z,74.93
2019-04-23T02:11:11.784Z,60.26
2019-04-23T02:12:07.595Z,49.95
2019-04-23T02:13:16.420Z,50.11
2019-04-23T02:14:03.744Z,49.63
2019-04-23T02:15:02.277Z,49.31
2019-04-23T02:15:59.956Z,60.59
2019-04-23T02:17:04.626Z,75.09
2019-04-23T02:18:08.532Z,76.54
2019-04-23T02:19:07.599Z,51.72
2019-04-23T02:20:09.213Z,69.29
2019-04-23T02:21:02.387Z,76.70
2019-04-23T02:22:06.560Z,72.83
2019-04-23T02:23:16.564Z,72.99
2019-04-23T02:23:57.211Z,74.12
2019-04-23T02:25:03.569Z,67.35
2019-04-23T02:26:02.721Z,74.12
2019-04-23T02:27:05.190Z,53.17
2019-04-23T02:29:13.306Z,58.65
2019-04-23T02:30:28.937Z,72.83
2019-04-23T02:31:25.272Z,77.02
2019-04-23T02:35:16.947Z,73.15
2019-04-23T02:36:26.516Z,77.18
2019-04-23T02:37:13.423Z,73.32
2019-04-23T02:39:01.027Z,77.18
2019-04-23T02:46:16.707Z,77.02
2019-04-23T02:48:19.883Z,70.90
2019-04-23T02:49:18.111Z,72.83
2019-04-23T02:50:33.136Z,75.25
2019-04-23T02:51:22.117Z,74.77
2019-04-23T02:52:18.873Z,76.05
2019-04-23T02:54:26.777Z,73.32
2019-04-23T02:55:17.197Z,77.99
2019-04-23T02:56:24.232Z,73.15
2019-04-23T02:57:13.257Z,74.44
2019-04-23T03:03:27.954Z,78.15
2019-04-23T03:05:36.051Z,76.05
2019-04-23T03:06:20.819Z,77.34
2019-04-23T03:07:26.724Z,76.22
2019-04-23T03:08:24.924Z,71.22
2019-04-23T03:09:20.581Z,78.96
2019-04-23T03:10:21.168Z,77.02
2019-04-23T03:12:27.099Z,75.57
2019-04-23T03:13:28.765Z,74.77
2019-04-23T03:14:26.783Z,77.18
2019-04-23T03:15:36.210Z,79.60
2019-04-23T03:17:36.531Z,69.45
2019-04-23T03:19:25.499Z,77.99
2019-04-23T03:21:27.024Z,76.38
2019-04-23T03:22:15.254Z,76.54
2019-04-23T03:23:31.864Z,76.86
2019-04-23T03:24:34.600Z,75.73
2019-04-23T03:28:27.373Z,84.43
2019-04-23T03:35:16.034Z,77.18
2019-04-23T03:39:30.528Z,75.57
2019-04-23T03:40:43.161Z,79.44
2019-04-23T03:41:41.126Z,76.22
2019-04-23T03:42:30.577Z,78.63
2019-04-23T03:44:29.814Z,84.76
2019-04-23T03:45:37.060Z,79.44
2019-04-23T03:48:32.410Z,78.79
2019-04-23T03:49:33.340Z,78.47
2019-04-23T03:50:28.441Z,78.31
2019-04-23T03:51:26.048Z,78.31
2019-04-23T03:52:36.891Z,75.41
2019-04-23T03:53:32.737Z,75.89
2019-04-23T03:55:51.698Z,77.34
2019-04-23T03:56:33.868Z,75.41
2019-04-23T03:58:38.719Z,77.50
2019-04-23T03:59:39.310Z,75.41
2019-04-23T04:00:37.099Z,77.67
2019-04-23T04:01:48.616Z,78.47
2019-04-23T04:03:55.030Z,77.18
2019-04-23T04:04:35.002Z,77.18
2019-04-23T04:08:31.316Z,77.67
2019-04-23T04:09:34.274Z,80.89
2019-04-23T04:10:36.008Z,75.73
2019-04-23T04:12:39.652Z,80.08
2019-04-23T04:14:38.921Z,79.28
2019-04-23T04:16:34.293Z,76.70
2019-04-23T04:17:32.944Z,77.67
2019-04-23T04:18:37.891Z,77.50
2019-04-23T04:19:41.750Z,80.73
2019-04-23T04:20:55.782Z,76.86
2019-04-23T04:21:36.870Z,77.67
2019-04-23T04:23:43.537Z,77.18
2019-04-23T04:24:37.029Z,78.79
2019-04-23T04:25:44.921Z,77.67
2019-04-23T04:28:38.873Z,78.79
2019-04-23T04:30:41.013Z,78.15
2019-04-23T04:32:56.501Z,77.18
2019-04-23T04:33:52.237Z,79.92
2019-04-23T04:35:47.788Z,78.79
2019-04-23T04:38:40.547Z,78.47
2019-04-23T04:39:42.231Z,78.47
2019-04-23T04:40:42.298Z,78.31
2019-04-23T04:41:40.375Z,74.28
2019-04-23T04:42:32.963Z,79.92
2019-04-23T04:43:45.944Z,78.15
2019-04-23T04:44:42.676Z,78.79
2019-04-23T04:46:39.433Z,80.57
2019-04-23T04:48:40.184Z,78.15
2019-04-23T04:49:51.033Z,81.05
2019-04-23T04:50:43.624Z,78.63
2019-04-23T04:51:48.906Z,78.47
2019-04-23T04:55:58.224Z,79.44
2019-04-23T04:58:52.886Z,82.02
2019-04-23T04:59:50.976Z,76.38
2019-04-23T05:01:37.985Z,77.50
2019-04-23T05:03:03.394Z,78.79
2019-04-23T05:07:42.181Z,79.28
2019-04-23T05:09:48.156Z,74.93
2019-04-23T05:11:45.403Z,79.12
2019-04-23T05:12:39.031Z,79.12
2019-04-23T05:13:47.208Z,80.08
2019-04-23T05:14:53.891Z,77.99
2019-04-23T05:15:37.343Z,79.44
2019-04-23T05:16:43.185Z,78.47
2019-04-23T05:18:46.730Z,78.31
2019-04-23T05:19:45.861Z,77.99
2019-04-23T05:20:46.876Z,80.41
2019-04-23T05:21:46.776Z,77.18
2019-04-23T05:23:54.100Z,79.12
2019-04-23T05:25:41.420Z,77.18
2019-04-23T05:27:47.139Z,83.63
2019-04-23T05:28:38.760Z,77.99
2019-04-23T05:29:38.565Z,75.41
2019-04-23T05:30:44.627Z,80.24
2019-04-23T05:31:32.578Z,81.37
2019-04-23T05:32:43.529Z,88.95
2019-04-23T05:33:39.082Z,76.86
2019-04-23T05:34:42.981Z,77.83
2019-04-23T05:36:09.170Z,79.12
2019-04-23T05:37:11.645Z,78.63
2019-04-23T05:37:52.884Z,77.50
2019-04-23T05:39:52.144Z,77.34
2019-04-23T05:40:45.059Z,79.28
2019-04-23T05:41:41.644Z,83.14
2019-04-23T05:42:49.860Z,79.92
2019-04-23T05:43:40.829Z,77.83
2019-04-23T05:44:43.269Z,78.47
2019-04-23T05:45:42.249Z,79.12
2019-04-23T05:46:37.813Z,74.60
2019-04-23T05:47:44.466Z,79.44
2019-04-23T05:48:40.502Z,78.47
2019-04-23T05:49:46.060Z,77.99
2019-04-23T05:51:52.052Z,77.34
2019-04-23T05:52:47.430Z,76.54
2019-04-23T05:53:46.674Z,79.92
2019-04-23T05:54:52.316Z,76.54
2019-04-23T05:55:49.300Z,77.83
2019-04-23T05:57:50.139Z,80.08
2019-04-23T05:58:45.411Z,77.50
2019-04-23T05:59:42.209Z,78.15
2019-04-23T06:00:50.934Z,78.15
2019-04-23T06:01:57.030Z,79.12
2019-04-23T06:02:53.717Z,77.18
2019-04-23T06:03:52.754Z,80.24
2019-04-23T06:04:42.226Z,89.27
2019-04-23T06:05:46.444Z,80.08
2019-04-23T06:07:49.675Z,77.34
2019-04-23T06:08:46.024Z,75.73
2019-04-23T06:09:48.400Z,77.18
2019-04-23T06:10:47.502Z,79.44
2019-04-23T06:11:54.242Z,79.44
2019-04-23T06:12:47.183Z,75.25
2019-04-23T06:13:56.128Z,78.31
2019-04-23T06:14:47.499Z,78.63
2019-04-23T06:15:49.218Z,76.70
2019-04-23T06:16:49.865Z,78.47
2019-04-23T06:17:47.543Z,77.83
2019-04-23T06:19:52.955Z,77.50
2019-04-23T06:20:55.573Z,75.41
2019-04-23T06:22:04.194Z,79.76
2019-04-23T06:23:11.274Z,85.56
2019-04-23T06:23:55.423Z,76.05
2019-04-23T06:24:45.063Z,77.50
2019-04-23T06:26:51.783Z,74.12
2019-04-23T06:28:48.757Z,78.15
2019-04-23T06:29:50.091Z,76.70
2019-04-23T06:30:58.946Z,75.57
2019-04-23T06:31:48.749Z,75.73
2019-04-23T06:32:51.268Z,77.02
2019-04-23T06:33:48.460Z,79.76
2019-04-23T06:35:54.864Z,77.34
2019-04-23T06:36:51.229Z,77.34
2019-04-23T06:38:14.686Z,76.70
2019-04-23T06:39:48.067Z,74.93
2019-04-23T06:40:56.925Z,76.86
2019-04-23T06:42:56.296Z,78.47
2019-04-23T06:44:00.391Z,76.05
2019-04-23T06:44:55.282Z,77.34
2019-04-23T06:45:49.387Z,82.98
2019-04-23T06:46:56.900Z,78.63
2019-04-23T06:47:56.375Z,76.86
2019-04-23T06:48:56.742Z,80.73
2019-04-23T06:50:58.204Z,77.34
2019-04-23T06:52:02.420Z,75.73
2019-04-23T06:52:50.028Z,74.77
2019-04-23T06:53:49.812Z,75.73
2019-04-23T06:55:09.380Z,77.67
2019-04-23T06:56:01.254Z,74.60
2019-04-23T06:57:03.815Z,77.02
2019-04-23T06:57:58.801Z,76.54
2019-04-23T06:58:48.961Z,75.41
2019-04-23T06:59:54.740Z,76.38
2019-04-23T07:00:59.192Z,78.47
2019-04-23T07:01:59.389Z,75.09
2019-04-23T07:02:57.012Z,75.73
2019-04-23T07:04:02.563Z,78.79
2019-04-23T07:06:11.833Z,79.28
2019-04-23T07:07:21.721Z,79.12
2019-04-23T07:07:59.701Z,76.38
2019-04-23T07:09:08.189Z,79.76
2019-04-23T07:09:58.050Z,77.02
2019-04-23T07:10:57.631Z,77.67
2019-04-23T07:11:57.325Z,77.18
2019-04-23T07:12:59.359Z,78.15
2019-04-23T07:13:57.138Z,76.86
2019-04-23T07:15:02.439Z,78.96
2019-04-23T07:15:55.139Z,76.22
2019-04-23T07:16:59.208Z,79.76
2019-04-23T07:17:55.352Z,78.96
2019-04-23T07:19:04.282Z,76.38
2019-04-23T07:20:04.309Z,77.02
2019-04-23T07:21:01.249Z,76.38
2019-04-23T07:22:12.096Z,78.63
2019-04-23T07:23:06.108Z,80.24
2019-04-23T07:25:06.113Z,78.63
2019-04-23T07:26:10.540Z,85.08
2019-04-23T07:26:53.165Z,78.79
2019-04-23T07:28:08.661Z,79.12
2019-04-23T07:30:08.317Z,77.18
2019-04-23T07:31:07.399Z,72.99
2019-04-23T07:32:03.542Z,76.86
2019-04-23T07:33:07.325Z,79.60
2019-04-23T07:34:01.090Z,76.86
2019-04-23T07:35:11.644Z,75.89
2019-04-23T07:36:03.790Z,76.05
2019-04-23T07:36:58.825Z,77.18
2019-04-23T07:38:13.094Z,76.86
2019-04-23T07:40:19.991Z,77.67
2019-04-23T07:41:05.697Z,83.14
2019-04-23T07:42:13.545Z,77.83
2019-04-23T07:43:03.277Z,80.89
2019-04-23T07:44:17.324Z,75.41
2019-04-23T07:45:04.453Z,78.15
2019-04-23T07:46:10.530Z,80.24
2019-04-23T07:49:08.792Z,76.54
2019-04-23T07:50:15.971Z,82.34
2019-04-23T07:51:03.681Z,75.41
2019-04-23T07:52:10.705Z,74.60
2019-04-23T07:54:11.059Z,75.73
2019-04-23T07:55:06.801Z,77.67
2019-04-23T07:56:07.697Z,80.89
2019-04-23T07:57:21.865Z,75.57
2019-04-23T07:58:17.274Z,80.57
2019-04-23T07:59:07.247Z,80.73
2019-04-23T08:01:04.804Z,77.34
2019-04-23T08:02:14.530Z,77.67
2019-04-23T08:03:17.831Z,78.79
2019-04-23T08:04:10.643Z,74.12
2019-04-23T08:05:15.523Z,92.97
2019-04-23T08:06:04.360Z,76.54
2019-04-23T08:07:08.328Z,75.25
2019-04-23T08:08:07.519Z,74.12
2019-04-23T08:09:08.812Z,76.70
2019-04-23T08:10:17.103Z,75.89
2019-04-23T08:12:13.338Z,76.05
2019-04-23T08:14:08.160Z,76.38
2019-04-23T08:15:16.003Z,76.38
2019-04-23T08:16:18.350Z,95.71
2019-04-23T08:17:12.458Z,78.31
2019-04-23T08:18:13.550Z,77.99
2019-04-23T08:19:05.753Z,75.25
2019-04-23T08:20:19.411Z,76.38
2019-04-23T08:21:09.820Z,75.73
2019-04-23T08:22:22.214Z,75.89
2019-04-23T08:23:09.531Z,75.41
2019-04-23T08:24:06.639Z,74.12
2019-04-23T08:25:12.573Z,79.28
2019-04-23T08:26:20.156Z,82.34
2019-04-23T08:27:22.659Z,73.64
2019-04-23T08:28:21.092Z,77.50
2019-04-23T08:30:06.440Z,79.76
2019-04-23T08:31:15.125Z,76.05
2019-04-23T08:32:19.002Z,75.09
2019-04-23T08:33:12.085Z,76.70
2019-04-23T08:35:16.446Z,78.96
2019-04-23T08:37:15.083Z,75.41
2019-04-23T08:38:22.888Z,77.02
2019-04-23T08:39:21.104Z,75.09
2019-04-23T08:40:13.210Z,75.09
2019-04-23T08:43:25.116Z,76.22
2019-04-23T08:46:05.765Z,74.28
2019-04-23T08:47:24.773Z,74.60
2019-04-23T08:48:17.290Z,88.30
2019-04-23T08:49:11.457Z,77.34
2019-04-23T08:50:27.480Z,76.54
2019-04-23T08:51:23.779Z,74.93
2019-04-23T08:52:14.763Z,75.09
2019-04-23T08:53:22.665Z,77.99
2019-04-23T08:54:21.955Z,83.63
2019-04-23T08:55:13.821Z,73.64
2019-04-23T08:56:12.012Z,76.22
2019-04-23T08:57:14.539Z,74.44
2019-04-23T08:58:17.112Z,81.69
2019-04-23T09:00:00.385Z,76.05
2019-04-23T09:00:17.842Z,75.25
2019-04-23T09:01:10.837Z,77.50
2019-04-23T09:03:18.867Z,75.89
2019-04-23T09:04:18.545Z,74.77
2019-04-23T09:05:16.416Z,80.24
2019-04-23T09:07:16.829Z,76.70
2019-04-23T09:08:21.378Z,72.67
2019-04-23T09:09:20.162Z,73.80
2019-04-23T09:10:20.878Z,75.41
2019-04-23T09:11:30.880Z,82.34
2019-04-23T09:12:26.879Z,75.73
2019-04-23T09:13:45.088Z,75.57
2019-04-23T09:14:20.035Z,77.67
2019-04-23T09:15:23.431Z,76.22
2019-04-23T09:16:15.565Z,76.70
2019-04-23T09:17:16.767Z,75.41
2019-04-23T09:18:17.932Z,88.46
2019-04-23T09:21:16.903Z,78.63
2019-04-23T09:22:21.988Z,74.93
2019-04-23T09:23:18.622Z,74.60
2019-04-23T09:24:24.182Z,71.70
2019-04-23T09:25:30.049Z,76.38
2019-04-23T09:26:15.698Z,77.50
2019-04-23T09:27:22.715Z,74.28
2019-04-23T09:28:27.596Z,81.69
2019-04-23T09:29:19.954Z,78.63
2019-04-23T09:30:24.536Z,77.67
2019-04-23T09:31:43.563Z,75.73
2019-04-23T09:33:24.307Z,78.63
2019-04-23T09:34:22.451Z,77.67
2019-04-23T09:35:24.063Z,76.54
2019-04-23T09:36:20.482Z,75.09
2019-04-23T09:38:23.730Z,75.25
2019-04-23T09:39:20.614Z,79.28
2019-04-23T09:40:41.531Z,75.57
2019-04-23T09:41:24.275Z,78.96
2019-04-23T09:42:38.907Z,76.22
2019-04-23T09:43:22.655Z,76.05
2019-04-23T09:44:42.600Z,77.67
2019-04-23T09:45:24.858Z,76.38
2019-04-23T09:46:24.051Z,75.25
2019-04-23T09:47:34.260Z,75.09
2019-04-23T09:48:17.419Z,72.19
2019-04-23T09:49:26.065Z,87.98
2019-04-23T09:51:25.558Z,76.22
2019-04-23T09:52:27.236Z,76.70
2019-04-23T09:53:27.846Z,78.63
2019-04-23T09:54:32.499Z,75.73
2019-04-23T09:55:28.637Z,78.79
2019-04-23T09:56:23.141Z,72.83
2019-04-23T09:57:24.323Z,76.70
2019-04-23T09:58:18.655Z,75.09
2019-04-23T10:00:31.434Z,76.22
2019-04-23T10:01:39.371Z,75.09
2019-04-23T10:02:20.079Z,75.73
2019-04-23T10:03:16.642Z,80.73
2019-04-23T10:04:13.543Z,74.60
2019-04-23T10:05:11.165Z,74.77
2019-04-23T10:06:05.984Z,74.12
2019-04-23T10:07:12.533Z,76.05
2019-04-23T10:08:10.039Z,75.09
2019-04-23T10:09:02.661Z,73.64
2019-04-23T10:09:59.670Z,75.41
2019-04-23T10:10:57.563Z,73.48
2019-04-23T10:11:58.807Z,75.09
2019-04-23T10:13:00.100Z,75.73
2019-04-23T10:13:58.835Z,76.86
2019-04-23T10:15:09.324Z,74.77
2019-04-23T10:16:00.105Z,74.93
2019-04-23T10:16:59.886Z,76.38
2019-04-23T10:18:00.393Z,78.15
2019-04-23T10:19:01.027Z,81.53
2019-04-23T10:20:00.592Z,76.54
2019-04-23T10:21:01.436Z,77.02
2019-04-23T10:21:59.863Z,75.89
2019-04-23T10:23:02.132Z,77.18
2019-04-23T10:24:01.383Z,80.08
2019-04-23T10:25:01.211Z,79.12
2019-04-23T10:26:01.907Z,82.50
2019-04-23T10:27:00.205Z,75.73
2019-04-23T10:28:06.904Z,76.54
2019-04-23T10:29:02.544Z,76.38
2019-04-23T10:30:01.794Z,76.38
2019-04-23T10:31:02.843Z,75.25
2019-04-23T10:32:02.087Z,75.89
2019-04-23T10:33:03.333Z,75.57
2019-04-23T10:34:02.107Z,75.73
2019-04-23T10:35:14.689Z,77.02
2019-04-23T10:36:09.378Z,74.44
2019-04-23T10:37:02.944Z,73.64
2019-04-23T10:38:06.624Z,75.57
2019-04-23T10:39:11.598Z,80.73
2019-04-23T10:40:07.995Z,79.76
2019-04-23T10:41:04.626Z,74.77
2019-04-23T10:42:03.430Z,76.54
2019-04-23T10:43:05.516Z,76.22
2019-04-23T10:44:04.816Z,75.89
2019-04-23T10:45:19.368Z,75.09
2019-04-23T10:46:25.605Z,76.54
2019-04-23T10:47:30.220Z,77.67
2019-04-23T10:50:40.615Z,74.77
2019-04-23T10:52:30.575Z,76.70
2019-04-23T10:53:37.974Z,75.25
2019-04-23T10:55:44.785Z,87.01
2019-04-23T10:56:43.225Z,76.22
2019-04-23T10:57:46.108Z,71.87
2019-04-23T10:58:35.330Z,74.12
2019-04-23T10:59:43.256Z,77.67
2019-04-23T11:00:35.856Z,76.22
2019-04-23T11:01:32.083Z,73.64
2019-04-23T11:02:40.325Z,75.41
2019-04-23T11:03:52.087Z,74.12
2019-04-23T11:05:50.278Z,74.12
2019-04-23T11:06:50.729Z,87.50
2019-04-23T11:08:38.658Z,74.12
2019-04-23T11:09:52.886Z,71.54
2019-04-23T11:10:32.966Z,76.22
2019-04-23T11:11:34.487Z,74.60
2019-04-23T11:12:42.385Z,78.15
2019-04-23T11:13:38.235Z,73.64
2019-04-23T11:14:48.381Z,74.77
2019-04-23T11:15:55.830Z,77.34
2019-04-23T11:17:46.309Z,74.44
2019-04-23T11:18:55.319Z,74.28
2019-04-23T11:19:49.470Z,74.93
2019-04-23T11:20:43.791Z,77.02
2019-04-23T11:21:43.149Z,76.70
2019-04-23T11:23:42.662Z,80.89
2019-04-23T11:25:45.082Z,80.57
2019-04-23T11:26:42.429Z,76.70
2019-04-23T11:28:02.597Z,81.05
2019-04-23T11:28:41.338Z,76.22
2019-04-23T11:29:38.795Z,74.77
2019-04-23T11:33:44.314Z,77.34
2019-04-23T11:36:01.861Z,75.89
2019-04-23T11:39:45.212Z,76.05
2019-04-23T11:40:37.164Z,77.67
2019-04-23T11:41:51.814Z,81.69
2019-04-23T11:42:52.901Z,76.22
2019-04-23T11:44:45.748Z,77.99
2019-04-23T11:46:57.184Z,74.28
2019-04-23T11:48:13.838Z,77.18
2019-04-23T11:49:53.417Z,74.77
2019-04-23T11:51:18.512Z,73.32
2019-04-23T11:51:54.026Z,75.57
2019-04-23T11:52:50.073Z,81.21
2019-04-23T11:54:47.976Z,78.47
2019-04-23T11:56:03.929Z,75.73
2019-04-23T11:58:01.688Z,73.96
2019-04-23T11:58:47.661Z,72.83
2019-04-23T12:01:03.092Z,77.67
2019-04-23T12:01:52.632Z,76.86
2019-04-23T12:02:50.084Z,74.77
2019-04-23T12:03:58.654Z,76.22
2019-04-23T12:04:55.870Z,77.18
2019-04-23T12:05:57.005Z,72.83
2019-04-23T12:06:52.458Z,76.38
2019-04-23T12:07:52.063Z,74.28
2019-04-23T12:11:00.275Z,76.05
2019-04-23T12:12:44.844Z,74.93
2019-04-23T12:13:56.626Z,78.96
2019-04-23T12:14:46.705Z,74.12
2019-04-23T12:15:53.535Z,77.83
2019-04-23T12:17:05.638Z,78.96
2019-04-23T12:17:50.761Z,73.80
2019-04-23T12:19:14.359Z,74.60
2019-04-23T12:19:55.662Z,80.24
2019-04-23T12:21:04.091Z,79.76
2019-04-23T12:21:56.684Z,74.44
2019-04-23T12:23:57.244Z,77.02
2019-04-23T12:25:09.388Z,74.28
2019-04-23T12:25:58.242Z,76.38
2019-04-23T12:27:39.724Z,74.12
2019-04-23T12:29:05.880Z,79.44
2019-04-23T12:30:50.153Z,74.12
2019-04-23T12:31:56.980Z,84.43
2019-04-23T12:34:01.381Z,74.77
2019-04-23T12:34:59.398Z,75.73
2019-04-23T12:35:50.154Z,76.54
2019-04-23T12:36:58.500Z,75.25
2019-04-23T12:37:53.845Z,70.74
2019-04-23T12:38:56.759Z,77.02
2019-04-23T12:40:03.301Z,78.15
2019-04-23T12:42:08.558Z,78.96
2019-04-23T12:43:07.807Z,72.83
2019-04-23T12:43:57.957Z,76.38
2019-04-23T12:45:50.072Z,76.70
2019-04-23T12:47:05.732Z,75.89
2019-04-23T12:48:09.571Z,74.60
2019-04-23T12:52:05.000Z,75.57
2019-04-23T12:53:57.744Z,74.60
2019-04-23T12:55:08.509Z,75.57
2019-04-23T12:56:02.015Z,76.22
2019-04-23T12:57:04.782Z,75.57
2019-04-23T12:58:51.528Z,75.89
2019-04-23T13:00:03.016Z,74.77
2019-04-23T13:00:51.542Z,73.48
2019-04-23T13:02:08.233Z,74.12
2019-04-23T13:03:02.769Z,76.54
2019-04-23T13:03:50.824Z,75.89
2019-04-23T13:05:04.412Z,72.35
2019-04-23T13:05:55.360Z,75.57
2019-04-23T13:06:57.869Z,75.25
2019-04-23T13:07:58.555Z,77.34
2019-04-23T13:09:05.456Z,74.28
2019-04-23T13:09:58.390Z,74.60
2019-04-23T13:10:59.052Z,75.73
2019-04-23T13:11:58.022Z,75.09
2019-04-23T13:13:11.342Z,74.44
2019-04-23T13:14:08.563Z,78.63
2019-04-23T13:16:05.897Z,77.83
2019-04-23T13:19:06.223Z,77.50
2019-04-23T13:21:07.050Z,80.41
2019-04-23T13:24:07.646Z,75.89
2019-04-23T13:25:02.426Z,78.96
2019-04-23T13:25:57.160Z,74.93
2019-04-23T13:27:12.039Z,78.15
2019-04-23T13:28:08.331Z,74.60
2019-04-23T13:29:12.101Z,74.44
2019-04-23T13:30:16.934Z,77.02
2019-04-23T13:31:06.623Z,75.57
2019-04-23T13:32:04.420Z,78.47
2019-04-23T13:33:08.052Z,74.12
2019-04-23T13:34:07.989Z,76.70
2019-04-23T13:35:18.611Z,75.57
2019-04-23T13:36:08.648Z,74.28
2019-04-23T13:37:16.204Z,74.93
2019-04-23T13:38:10.406Z,78.31
2019-04-23T13:39:05.341Z,75.57
2019-04-23T13:40:08.680Z,73.64
2019-04-23T13:41:11.101Z,73.15
2019-04-23T13:42:14.833Z,75.25
2019-04-23T13:43:13.951Z,73.96
2019-04-23T13:44:08.564Z,75.89
2019-04-23T13:47:15.695Z,75.41
2019-04-23T13:48:06.346Z,75.41
2019-04-23T13:49:02.123Z,83.79
2019-04-23T13:50:19.485Z,81.86
2019-04-23T13:51:19.386Z,76.86
2019-04-23T13:52:39.496Z,76.54
2019-04-23T13:53:18.554Z,72.03
2019-04-23T13:54:15.848Z,74.60
2019-04-23T13:55:18.760Z,75.25
2019-04-23T13:56:18.652Z,74.12
2019-04-23T13:58:20.881Z,76.05
2019-04-23T13:59:15.884Z,74.12
2019-04-23T14:00:21.103Z,73.48
2019-04-23T14:01:18.337Z,74.77
2019-04-23T14:02:17.802Z,75.73
2019-04-23T14:03:13.956Z,75.89
2019-04-23T14:04:16.216Z,76.22
2019-04-23T14:05:12.954Z,85.24
2019-04-23T14:06:22.788Z,75.25
2019-04-23T14:07:15.031Z,75.89
2019-04-23T14:10:18.279Z,74.12
2019-04-23T14:12:08.307Z,76.70
2019-04-23T14:14:19.672Z,75.57
2019-04-23T14:16:23.127Z,74.60
2019-04-23T14:17:38.062Z,76.54
2019-04-23T14:18:43.183Z,75.73
2019-04-23T14:19:23.205Z,76.54
2019-04-23T14:20:14.505Z,74.77
2019-04-23T14:21:25.284Z,75.57
2019-04-23T14:22:33.775Z,74.60
2019-04-23T14:23:41.173Z,74.60
2019-04-23T14:25:14.338Z,74.93
2019-04-23T14:27:24.472Z,75.57
2019-04-23T14:28:22.078Z,74.44
2019-04-23T14:29:15.012Z,72.35
2019-04-23T14:30:21.903Z,74.60
2019-04-23T14:31:20.467Z,77.18
2019-04-23T14:32:29.319Z,75.73
2019-04-23T14:33:26.538Z,79.44
2019-04-23T14:35:25.542Z,77.18
2019-04-23T14:36:19.264Z,76.70
2019-04-23T14:38:27.179Z,73.64
2019-04-23T14:39:22.133Z,73.15
2019-04-23T14:41:23.624Z,73.64
2019-04-23T14:42:33.323Z,74.12
2019-04-23T14:43:25.914Z,76.05
2019-04-23T14:44:17.990Z,74.12
2019-04-23T14:45:29.601Z,74.28
2019-04-23T14:47:24.279Z,76.38
2019-04-23T14:49:18.611Z,73.32
2019-04-23T14:52:21.672Z,73.48
2019-04-23T14:53:31.077Z,75.73
2019-04-23T14:54:35.970Z,81.21
2019-04-23T14:57:24.528Z,74.60
2019-04-23T14:59:39.347Z,76.70
2019-04-23T15:00:28.634Z,72.67
2019-04-23T15:01:34.710Z,74.12
2019-04-23T15:02:27.151Z,76.70
2019-04-23T15:03:28.758Z,74.93
2019-04-23T15:04:20.455Z,77.18
2019-04-23T15:05:26.874Z,78.31
2019-04-23T15:07:28.620Z,73.96
2019-04-23T15:09:28.059Z,74.12
2019-04-23T15:10:24.802Z,75.09
2019-04-23T15:11:27.544Z,79.28
2019-04-23T15:12:32.267Z,74.44
2019-04-23T15:13:22.716Z,74.28
2019-04-23T15:14:25.465Z,77.50
2019-04-23T15:18:35.677Z,74.12
2019-04-23T15:19:36.865Z,82.66
2019-04-23T15:20:25.330Z,76.54
2019-04-23T15:23:41.702Z,74.12
2019-04-23T15:24:25.964Z,75.89
2019-04-23T15:25:36.994Z,74.12
2019-04-23T15:28:07.484Z,75.73
2019-04-23T15:29:09.688Z,76.22
2019-04-23T15:31:24.797Z,76.22
2019-04-23T15:32:25.393Z,74.77
2019-04-23T15:34:45.358Z,76.05
2019-04-23T15:35:57.571Z,75.41
2019-04-23T15:37:58.392Z,76.22
2019-04-23T15:39:31.054Z,81.86
2019-04-23T15:40:24.912Z,74.12
2019-04-23T15:41:33.456Z,75.73
2019-04-23T15:43:30.807Z,73.64
2019-04-23T15:44:21.823Z,75.41
2019-04-23T15:45:32.683Z,74.12
2019-04-23T15:47:35.471Z,76.22
2019-04-23T15:48:31.804Z,74.93
2019-04-23T15:49:28.726Z,74.60
2019-04-23T15:50:43.959Z,77.18
2019-04-23T15:51:35.606Z,72.67
2019-04-23T15:52:39.423Z,76.38
2019-04-23T15:53:25.975Z,72.51
2019-04-23T15:54:35.350Z,75.41
2019-04-23T15:55:27.550Z,75.41
2019-04-23T15:57:54.170Z,76.05
2019-04-23T15:58:37.224Z,73.48
2019-04-23T15:59:33.340Z,75.89
2019-04-23T16:00:31.362Z,76.86
2019-04-23T16:02:03.514Z,76.86
2019-04-23T16:03:01.721Z,74.77
2019-04-23T16:04:03.285Z,76.70
2019-04-23T16:05:03.643Z,82.66
2019-04-23T16:06:02.624Z,75.89
2019-04-23T16:07:04.554Z,74.44
2019-04-23T16:08:38.991Z,75.57
2019-04-23T16:09:21.381Z,76.54
2019-04-23T16:10:29.598Z,74.77
2019-04-23T16:11:41.704Z,76.70
2019-04-23T16:12:36.010Z,87.33
2019-04-23T16:15:35.476Z,77.18
2019-04-23T16:16:41.560Z,73.48